Time;durP1;ratioP1;P1;durP2;ratioP2;P2;SDS_P1;SDS_P2;PMS_P1;PMS_P2;Temp;Humidity;BMP_temperature;BMP_pressure;BME280_temperature;BME280_humidity;BME280_pressure;Samples;Min_cycle;Max_cycle;Signal;HPM_P1;HPM_P2
2023/09/21 00:00:55;;;;;;;349.80;181.50;;;16.90;99.90;;;;;;6105019;23;20025;-88
2023/09/21 00:03:29;;;;;;;348.93;180.63;;;16.90;99.90;;;;;;6129032;23;20017;-86
2023/09/21 00:06:02;;;;;;;347.63;179.68;;;16.70;99.90;;;;;;6105417;23;20018;-88
2023/09/21 00:08:34;;;;;;;350.80;181.33;;;17.00;99.90;;;;;;6148138;23;20076;-88
2023/09/21 00:15:31;;;;;;;348.43;179.87;;;17.00;99.90;;;;;;6095749;23;20602;-88
2023/09/21 00:18:21;;;;;;;350.40;181.27;;;17.00;99.90;;;;;;6095333;23;20018;-87
2023/09/21 00:21:17;;;;;;;349.80;180.55;;;17.00;99.90;;;;;;6113348;23;20242;-88
2023/09/21 00:24:15;;;;;;;348.70;180.10;;;17.00;99.90;;;;;;6124926;23;20033;-88
2023/09/21 00:27:03;;;;;;;350.00;180.90;;;17.10;99.90;;;;;;6123470;23;20349;-88
2023/09/21 00:30:05;;;;;;;349.10;180.73;;;17.00;99.90;;;;;;6036905;23;20114;-88
2023/09/21 00:32:47;;;;;;;347.37;180.27;;;17.00;99.90;;;;;;6010702;23;20023;-88
2023/09/21 00:35:19;;;;;;;347.73;179.60;;;17.00;99.90;;;;;;6114966;23;20452;-89
2023/09/21 00:37:56;;;;;;;350.92;181.73;;;17.00;99.90;;;;;;6129242;23;20018;-88
2023/09/21 00:40:56;;;;;;;;;;;;;;;;;;;;;
2023/09/21 00:43:37;;;;;;;352.63;180.37;;;16.90;99.90;;;;;;6094630;23;20018;-87
2023/09/21 00:46:15;;;;;;;355.17;180.98;;;16.90;99.90;;;;;;6091039;23;20110;-87
2023/09/21 00:48:47;;;;;;;356.77;181.68;;;16.90;99.90;;;;;;6092669;23;20018;-88
2023/09/21 00:51:33;;;;;;;352.90;180.05;;;16.80;99.90;;;;;;6047758;23;20054;-88
2023/09/21 00:54:16;;;;;;;354.00;180.80;;;17.10;99.90;;;;;;6070411;23;20018;-88
2023/09/21 00:57:03;;;;;;;353.83;180.55;;;16.70;99.90;;;;;;6093784;23;20425;-88
2023/09/21 00:59:48;;;;;;;355.07;181.73;;;16.80;99.90;;;;;;6101470;23;20018;-88
2023/09/21 01:02:23;;;;;;;352.50;180.07;;;16.80;99.90;;;;;;6134405;23;20016;-87
2023/09/21 01:04:54;;;;;;;356.30;182.07;;;16.70;99.90;;;;;;6183224;23;20490;-88
2023/09/21 01:08:03;;;;;;;354.73;181.37;;;16.80;99.90;;;;;;6135678;23;20053;-87
2023/09/21 01:10:59;;;;;;;354.33;181.33;;;16.80;99.90;;;;;;6075532;23;20461;-88
2023/09/21 01:13:55;;;;;;;353.00;180.27;;;16.80;99.90;;;;;;6124712;23;20024;-87
2023/09/21 01:16:57;;;;;;;353.20;180.70;;;16.80;99.90;;;;;;6124481;23;20018;-88
2023/09/21 01:19:45;;;;;;;354.40;181.60;;;16.80;99.90;;;;;;6099067;23;20061;-88
2023/09/21 01:22:15;;;;;;;353.47;180.33;;;16.90;99.90;;;;;;6107412;23;20029;-88
2023/09/21 01:25:07;;;;;;;;;;;;;;;;;;;;;
2023/09/21 01:31:54;;;;;;;;;;;;;;;;;;;;;
2023/09/21 01:34:36;;;;;;;355.73;181.07;;;17.00;99.90;;;;;;6132808;23;20084;-88
2023/09/21 01:37:21;;;;;;;356.80;182.17;;;17.00;99.90;;;;;;6138010;23;20021;-88
2023/09/21 01:40:15;;;;;;;357.70;181.25;;;17.10;99.90;;;;;;6136927;23;20032;-88
2023/09/21 01:42:53;;;;;;;357.13;181.93;;;17.10;99.90;;;;;;6129055;23;20034;-89
2023/09/21 01:45:34;;;;;;;355.73;181.07;;;17.20;99.90;;;;;;6104488;23;20035;-88
2023/09/21 01:48:27;;;;;;;358.03;182.20;;;17.20;99.90;;;;;;6255803;22;20015;-88
2023/09/21 01:51:13;;;;;;;358.03;181.90;;;17.30;99.90;;;;;;6231612;22;20024;-89
2023/09/21 01:53:50;;;;;;;357.23;181.63;;;17.30;99.90;;;;;;6255400;22;20016;-88
2023/09/21 01:56:27;;;;;;;358.33;182.20;;;17.30;99.90;;;;;;6229673;22;20012;-88
2023/09/21 01:59:05;;;;;;;357.17;181.23;;;17.30;99.90;;;;;;6282537;22;20061;-88
2023/09/21 02:01:41;;;;;;;358.33;180.57;;;17.30;99.90;;;;;;6257952;22;20047;-89
2023/09/21 02:04:13;;;;;;;358.60;181.47;;;17.20;99.90;;;;;;6256583;22;20016;-89
2023/09/21 02:07:04;;;;;;;360.40;182.13;;;17.20;99.90;;;;;;6256405;22;20050;-88
2023/09/21 02:09:35;;;;;;;358.17;181.30;;;17.10;99.90;;;;;;6257761;22;20012;-87
2023/09/21 02:19:37;;;;;;;357.20;181.70;;;17.00;99.90;;;;;;6319980;22;20061;-88
2023/09/21 02:22:08;;;;;;;357.83;181.97;;;17.00;99.90;;;;;;6290161;22;20015;-89
2023/09/21 02:25:11;;;;;;;;;;;;;;;;;;;;;
2023/09/21 02:31:56;;;;;;;358.30;181.77;;;16.90;99.90;;;;;;6318832;22;20136;-89
2023/09/21 02:34:30;;;;;;;358.00;181.43;;;16.90;99.90;;;;;;6268796;22;20026;-89
2023/09/21 02:37:08;;;;;;;358.23;181.73;;;16.90;99.90;;;;;;6266670;22;20019;-89
2023/09/21 02:39:37;;;;;;;358.63;181.73;;;16.90;99.90;;;;;;6291428;22;20045;-86
2023/09/21 02:42:16;;;;;;;359.03;182.33;;;16.90;99.90;;;;;;6256608;23;20024;-89
2023/09/21 02:44:55;;;;;;;358.55;181.23;;;16.90;99.90;;;;;;6254023;23;20516;-87
2023/09/21 02:47:36;;;;;;;358.97;181.90;;;16.90;99.90;;;;;;6234014;23;20020;-89
2023/09/21 02:53:27;;;;;;;356.73;179.77;;;17.00;99.90;;;;;;6257662;23;20024;-88
2023/09/21 02:56:03;;;;;;;357.67;181.23;;;17.00;99.90;;;;;;6159196;23;20022;-89
2023/09/21 03:05:59;;;;;;;356.73;180.77;;;17.20;99.90;;;;;;6135758;23;20149;-88
2023/09/21 03:08:28;;;;;;;358.03;181.00;;;17.10;99.90;;;;;;6110097;23;20281;-89
2023/09/21 03:11:13;;;;;;;358.92;180.82;;;17.10;99.90;;;;;;6110721;23;20220;-89
2023/09/21 03:14:08;;;;;;;358.57;181.30;;;17.20;99.90;;;;;;6085991;23;20085;-89
2023/09/21 03:16:43;;;;;;;359.53;182.47;;;17.10;99.90;;;;;;6107765;23;20605;-88
2023/09/21 03:19:49;;;;;;;357.27;179.97;;;17.30;99.90;;;;;;6131999;23;20021;-88
2023/09/21 03:22:30;;;;;;;356.47;179.83;;;17.20;99.90;;;;;;6164139;23;20325;-88
2023/09/21 03:25:26;;;;;;;358.00;180.87;;;17.30;99.90;;;;;;6203473;22;20026;-89
2023/09/21 03:28:10;;;;;;;357.30;181.27;;;17.30;99.90;;;;;;6285634;22;20261;-89
2023/09/21 03:30:56;;;;;;;358.58;181.60;;;17.50;99.90;;;;;;6312388;22;20016;-89
2023/09/21 03:33:47;;;;;;;357.67;181.33;;;17.40;99.90;;;;;;6309920;22;20022;-88
2023/09/21 03:36:20;;;;;;;358.70;181.67;;;17.50;99.90;;;;;;6285812;22;20238;-89
2023/09/21 03:39:19;;;;;;;358.33;181.90;;;17.40;99.90;;;;;;6284947;22;20019;-87
2023/09/21 03:44:47;;;;;;;358.80;181.20;;;17.40;99.90;;;;;;6216204;23;20028;-88
2023/09/21 03:47:51;;;;;;;358.00;180.80;;;17.50;99.90;;;;;;6169649;23;20016;-87
2023/09/21 03:50:38;;;;;;;360.10;182.17;;;17.50;99.90;;;;;;6193147;23;20571;-89
2023/09/21 03:53:20;;;;;;;360.30;182.20;;;17.60;99.90;;;;;;6188315;23;20383;-89
2023/09/21 03:56:04;;;;;;;359.70;182.40;;;17.60;99.90;;;;;;6188315;23;20020;-88
2023/09/21 03:59:06;;;;;;;359.33;181.93;;;17.60;99.90;;;;;;6066042;23;20022;-89
2023/09/21 04:01:46;;;;;;;360.00;182.73;;;17.60;99.90;;;;;;6042156;23;20343;-89
2023/09/21 04:04:32;;;;;;;357.63;182.80;;;17.60;99.90;;;;;;6062520;23;20586;-90
2023/09/21 04:07:58;;;;;;;;;;;;;;;;;;;;;
2023/09/21 04:10:57;;;;;;;330.53;179.00;;;17.70;99.90;;;;;;6065951;23;20450;-90
2023/09/21 04:13:34;;;;;;;331.77;178.87;;;17.70;99.90;;;;;;6041501;23;20023;-89
2023/09/21 04:16:31;;;;;;;329.20;180.00;;;17.80;99.90;;;;;;6042964;23;20025;-89
2023/09/21 04:19:23;;;;;;;307.80;178.53;;;17.90;99.90;;;;;;6066402;23;20027;-90
2023/09/21 04:22:10;;;;;;;294.93;172.67;;;17.90;99.90;;;;;;6083256;23;20037;-89
2023/09/21 04:25:08;;;;;;;307.53;175.67;;;17.90;99.90;;;;;;6153977;23;20076;-90
2023/09/21 04:27:45;;;;;;;314.40;177.97;;;18.00;99.90;;;;;;6153881;23;20017;-89
2023/09/21 04:30:16;;;;;;;317.13;177.18;;;18.00;99.90;;;;;;6128646;23;20021;-88
2023/09/21 04:32:53;;;;;;;319.07;178.30;;;18.00;99.90;;;;;;6153264;23;20026;-89
2023/09/21 04:35:33;;;;;;;322.67;178.20;;;17.90;99.90;;;;;;6164687;22;20054;-89
2023/09/21 04:38:15;;;;;;;315.23;176.90;;;18.00;99.90;;;;;;6223563;22;20066;-88
2023/09/21 04:40:54;;;;;;;315.57;177.27;;;17.90;99.90;;;;;;6226336;22;20039;-89
2023/09/21 04:47:58;;;;;;;309.20;175.63;;;17.90;99.90;;;;;;6279421;22;20026;-89
2023/09/21 04:50:41;;;;;;;311.97;175.67;;;17.90;99.90;;;;;;6226042;22;20023;-89
2023/09/21 04:53:09;;;;;;;311.57;176.13;;;17.80;99.90;;;;;;6276886;22;20046;-89
2023/09/21 04:55:44;;;;;;;312.17;175.73;;;17.70;99.90;;;;;;6276768;22;20019;-89
2023/09/21 05:02:30;;;;;;;;;;;;;;;;;;;;;
2023/09/21 05:05:06;;;;;;;316.23;176.60;;;17.70;99.90;;;;;;6091325;23;20026;-88
2023/09/21 05:07:35;;;;;;;304.73;166.83;;;17.60;99.90;;;;;;6098426;23;20025;-88
2023/09/21 05:10:33;;;;;;;324.97;180.27;;;17.60;99.90;;;;;;6098420;23;20021;-89
2023/09/21 05:16:56;;;;;;;302.90;164.17;;;17.50;99.90;;;;;;6123503;23;20141;-88
2023/09/21 05:19:49;;;;;;;325.37;179.60;;;17.40;99.90;;;;;;6123631;23;20026;-89
2023/09/21 05:25:23;;;;;;;328.43;181.40;;;17.40;99.90;;;;;;6152802;23;20026;-89
2023/09/21 05:28:05;;;;;;;312.03;169.07;;;17.00;99.90;;;;;;6153129;23;20032;-89
2023/09/21 05:30:34;;;;;;;331.03;182.40;;;17.30;99.90;;;;;;6128093;23;20025;-89
2023/09/21 05:33:07;;;;;;;329.40;180.13;;;17.30;99.90;;;;;;6152973;23;20025;-88
2023/09/21 05:35:38;;;;;;;331.70;180.83;;;17.60;99.90;;;;;;6128515;23;20029;-89
2023/09/21 05:38:22;;;;;;;333.23;183.63;;;17.30;99.90;;;;;;6128528;23;20069;-89
2023/09/21 05:41:07;;;;;;;329.67;181.67;;;17.40;99.90;;;;;;6134960;23;20076;-88
2023/09/21 05:47:29;;;;;;;329.30;179.63;;;17.50;99.90;;;;;;6243837;23;20143;-89
2023/09/21 05:50:24;;;;;;;331.77;180.27;;;17.40;99.90;;;;;;6194362;23;20024;-90
2023/09/21 05:52:53;;;;;;;;;;;17.50;99.90;;;;;;6243408;23;20023;-89
2023/09/21 05:55:38;;;;;;;330.37;179.97;;;17.50;99.90;;;;;;6211271;22;19916;-87
2023/09/21 05:58:10;;;;;;;331.70;180.37;;;17.50;99.90;;;;;;6248646;22;20042;-87
2023/09/21 06:00:35;;;;;;;333.70;181.40;;;17.50;99.90;;;;;;6249441;22;20019;-84
2023/09/21 06:03:04;;;;;;;332.53;180.20;;;17.60;99.90;;;;;;6276067;22;20094;-91
2023/09/21 06:05:30;;;;;;;333.43;180.63;;;17.60;99.90;;;;;;6223067;22;20019;-85
2023/09/21 06:07:58;;;;;;;334.47;181.30;;;17.60;99.90;;;;;;6224199;22;20061;-84
2023/09/21 06:10:25;;;;;;;334.77;181.33;;;17.70;99.90;;;;;;6278382;22;20019;-86
2023/09/21 06:12:51;;;;;;;334.33;180.90;;;17.70;99.90;;;;;;6225846;22;20015;-85
2023/09/21 06:15:18;;;;;;;334.93;181.37;;;17.70;99.90;;;;;;6225262;22;20027;-85
2023/09/21 06:17:46;;;;;;;335.60;181.37;;;17.70;99.90;;;;;;6225345;22;20094;-85
2023/09/21 06:20:23;;;;;;;333.43;180.83;;;17.80;99.90;;;;;;6226047;22;20016;-87
2023/09/21 06:22:50;;;;;;;333.07;180.83;;;17.80;99.90;;;;;;6272285;22;20098;-85
2023/09/21 06:25:24;;;;;;;332.83;180.50;;;17.90;99.90;;;;;;6281086;22;20015;-86
2023/09/21 06:27:51;;;;;;;336.90;183.63;;;17.90;99.90;;;;;;6307554;22;20042;-85
2023/09/21 06:30:22;;;;;;;335.17;182.43;;;18.00;99.90;;;;;;6281297;22;20015;-85
2023/09/21 06:32:48;;;;;;;331.13;180.73;;;18.00;99.90;;;;;;6280615;22;20042;-85
2023/09/21 06:35:19;;;;;;;312.87;176.73;;;18.10;99.90;;;;;;6255442;22;20416;-85
2023/09/21 06:37:54;;;;;;;315.43;177.47;;;18.10;99.90;;;;;;6255880;22;20023;-85
2023/09/21 06:40:26;;;;;;;324.23;179.55;;;18.10;99.90;;;;;;6281291;22;20019;-84
2023/09/21 06:42:52;;;;;;;320.73;178.83;;;18.10;99.90;;;;;;6281374;22;20101;-85
2023/09/21 06:45:20;;;;;;;312.00;177.63;;;18.10;99.90;;;;;;6308646;22;20019;-85
2023/09/21 06:47:47;;;;;;;307.47;175.57;;;18.00;99.90;;;;;;6280574;22;20015;-84
2023/09/21 06:50:14;;;;;;;303.77;174.40;;;18.00;99.90;;;;;;6254978;22;20087;-81
2023/09/21 06:52:40;;;;;;;303.13;174.73;;;18.00;99.90;;;;;;6308806;22;20007;-83
2023/09/21 06:55:07;;;;;;;306.50;174.83;;;18.00;99.90;;;;;;6308489;22;20085;-82
2023/09/21 06:57:34;;;;;;;312.43;176.80;;;17.90;99.90;;;;;;6308084;22;20094;-83
2023/09/21 07:00:01;;;;;;;308.90;175.97;;;18.00;99.90;;;;;;6280857;22;20017;-83
2023/09/21 07:02:28;;;;;;;316.80;177.57;;;18.00;99.90;;;;;;6280542;22;20019;-82
2023/09/21 07:04:54;;;;;;;318.73;177.70;;;18.00;99.90;;;;;;6254640;22;20156;-82
2023/09/21 07:07:21;;;;;;;321.93;178.77;;;18.00;99.90;;;;;;6308370;22;20045;-83
2023/09/21 07:09:55;;;;;;;325.93;179.43;;;18.00;99.90;;;;;;6280536;22;20101;-87
2023/09/21 07:12:24;;;;;;;325.80;178.15;;;18.00;99.90;;;;;;6281099;22;20026;-83
2023/09/21 07:14:50;;;;;;;334.43;183.00;;;17.90;99.90;;;;;;6255929;22;20023;-83
2023/09/21 07:17:16;;;;;;;335.80;183.17;;;17.80;99.90;;;;;;6280642;22;20015;-83
2023/09/21 07:19:42;;;;;;;335.43;182.23;;;17.80;99.90;;;;;;6280428;22;20019;-86
2023/09/21 07:22:08;;;;;;;334.63;181.30;;;17.80;99.90;;;;;;6307511;22;20023;-83
2023/09/21 07:24:36;;;;;;;339.43;184.20;;;17.80;99.90;;;;;;6255434;22;20019;-84
2023/09/21 07:27:01;;;;;;;338.37;183.53;;;17.70;99.90;;;;;;6255112;22;20019;-84
2023/09/21 07:29:27;;;;;;;339.43;184.13;;;17.70;99.90;;;;;;6280780;22;20047;-84
2023/09/21 07:31:53;;;;;;;338.13;183.07;;;17.60;99.90;;;;;;6307878;22;20023;-84
2023/09/21 07:34:19;;;;;;;337.13;182.37;;;17.60;99.90;;;;;;6307658;22;20030;-83
2023/09/21 07:36:56;;;;;;;334.53;180.77;;;17.60;99.90;;;;;;6280595;22;20073;-83
2023/09/21 07:39:21;;;;;;;334.30;180.77;;;17.60;99.90;;;;;;6280893;22;20299;-84
2023/09/21 07:41:50;;;;;;;335.77;181.30;;;17.50;99.90;;;;;;6254976;22;20022;-84
2023/09/21 07:44:16;;;;;;;335.17;180.90;;;17.50;99.90;;;;;;6280198;22;20019;-84
2023/09/21 07:46:42;;;;;;;335.23;181.00;;;17.50;99.90;;;;;;6280484;22;20023;-84
2023/09/21 07:49:09;;;;;;;335.87;181.40;;;17.60;99.90;;;;;;6254723;22;20018;-84
2023/09/21 07:51:34;;;;;;;338.30;182.87;;;17.50;99.90;;;;;;6254926;22;20025;-84
2023/09/21 07:54:01;;;;;;;335.23;180.67;;;17.60;99.90;;;;;;6280515;22;20086;-84
2023/09/21 07:56:27;;;;;;;336.47;181.20;;;17.60;99.90;;;;;;6280404;22;20019;-83
2023/09/21 07:58:54;;;;;;;337.17;181.70;;;17.60;99.90;;;;;;6279951;22;20437;-85
2023/09/21 08:01:20;;;;;;;335.40;180.60;;;17.60;99.90;;;;;;6280426;22;20019;-84
2023/09/21 08:03:49;;;;;;;337.10;181.70;;;17.60;99.90;;;;;;6280450;22;20156;-84
2023/09/21 08:06:17;;;;;;;338.50;182.40;;;17.60;99.90;;;;;;6307177;22;20022;-84
2023/09/21 08:08:44;;;;;;;338.83;182.43;;;17.60;99.90;;;;;;6280562;22;20011;-84
2023/09/21 08:11:10;;;;;;;337.60;181.77;;;17.50;99.90;;;;;;6254395;22;20509;-84
2023/09/21 08:13:37;;;;;;;335.73;180.37;;;17.60;99.90;;;;;;6254721;22;20062;-84
2023/09/21 08:16:03;;;;;;;335.37;180.50;;;17.60;99.90;;;;;;6254189;22;20015;-84
2023/09/21 08:18:29;;;;;;;335.90;181.70;;;17.50;99.90;;;;;;6307236;22;20442;-84
2023/09/21 08:20:55;;;;;;;335.87;181.47;;;17.50;99.90;;;;;;6307360;22;20027;-85
2023/09/21 08:23:21;;;;;;;336.87;182.40;;;17.50;99.90;;;;;;6257255;22;20020;-84
2023/09/21 08:25:47;;;;;;;335.43;181.90;;;17.50;99.90;;;;;;6276613;22;20322;-84
2023/09/21 08:28:13;;;;;;;336.30;181.87;;;17.50;99.90;;;;;;6249051;22;20051;-87
2023/09/21 08:30:39;;;;;;;334.73;180.77;;;17.60;99.90;;;;;;6248883;22;20090;-84
2023/09/21 08:33:07;;;;;;;336.43;181.90;;;17.50;99.90;;;;;;6276596;22;20074;-84
2023/09/21 08:35:33;;;;;;;335.37;180.97;;;17.50;99.90;;;;;;6276076;22;20020;-84
2023/09/21 08:37:59;;;;;;;337.07;182.10;;;17.50;99.90;;;;;;6276218;22;20015;-84
2023/09/21 08:40:26;;;;;;;335.63;181.27;;;17.50;99.90;;;;;;6223694;22;20120;-84
2023/09/21 08:42:53;;;;;;;335.30;181.73;;;17.50;99.90;;;;;;6249027;22;20027;-84
2023/09/21 08:45:25;;;;;;;334.57;181.50;;;17.40;99.90;;;;;;6276139;22;20023;-85
2023/09/21 08:47:51;;;;;;;334.67;181.10;;;17.50;99.90;;;;;;6249007;22;20047;-84
2023/09/21 08:50:17;;;;;;;334.73;181.27;;;17.40;99.90;;;;;;6276678;22;20020;-84
2023/09/21 08:52:48;;;;;;;333.03;180.23;;;17.50;99.90;;;;;;6249228;22;20014;-84
2023/09/21 08:55:14;;;;;;;333.20;180.07;;;17.40;99.90;;;;;;6223800;22;20020;-84
2023/09/21 08:57:41;;;;;;;335.23;181.80;;;17.40;99.90;;;;;;6248922;22;20015;-85
2023/09/21 09:00:08;;;;;;;333.10;180.40;;;17.30;99.90;;;;;;6276418;22;20019;-84
2023/09/21 09:02:37;;;;;;;330.97;179.30;;;17.20;99.90;;;;;;6249181;22;20073;-85
2023/09/21 09:05:08;;;;;;;332.67;180.27;;;17.20;99.90;;;;;;6248807;22;20019;-85
2023/09/21 09:07:39;;;;;;;332.07;180.47;;;17.10;99.90;;;;;;6275861;22;20047;-86
2023/09/21 09:10:10;;;;;;;332.83;180.30;;;17.00;99.90;;;;;;6276480;22;20078;-84
2023/09/21 09:12:43;;;;;;;333.13;180.47;;;16.90;99.90;;;;;;6249194;22;20019;-86
2023/09/21 09:15:09;;;;;;;334.80;181.17;;;16.90;99.90;;;;;;6223468;22;20078;-85
2023/09/21 09:17:36;;;;;;;332.07;179.77;;;16.80;99.90;;;;;;6249489;22;20034;-85
2023/09/21 09:20:05;;;;;;;332.73;179.77;;;16.70;99.90;;;;;;6249007;22;20023;-84
2023/09/21 09:22:34;;;;;;;330.20;179.20;;;16.60;99.90;;;;;;6234575;22;20033;-84
2023/09/21 09:25:09;;;;;;;330.57;179.67;;;16.50;99.90;;;;;;6279457;22;20019;-85
2023/09/21 09:27:36;;;;;;;331.42;180.48;;;16.40;99.90;;;;;;6279612;22;20018;-85
2023/09/21 09:30:08;;;;;;;330.70;179.20;;;16.40;99.90;;;;;;6279602;22;20030;-84
2023/09/21 09:32:41;;;;;;;329.70;179.40;;;16.40;99.90;;;;;;6253986;22;20102;-85
2023/09/21 09:35:14;;;;;;;328.30;179.60;;;16.30;99.90;;;;;;6307008;22;20011;-86
2023/09/21 09:37:42;;;;;;;328.33;179.60;;;16.30;99.90;;;;;;6306747;22;20047;-85
2023/09/21 09:40:18;;;;;;;324.57;178.67;;;16.20;99.90;;;;;;6279727;22;20518;-86
2023/09/21 09:42:45;;;;;;;327.10;178.77;;;16.30;99.90;;;;;;6255811;22;20342;-86
2023/09/21 09:45:16;;;;;;;328.90;178.37;;;16.30;99.90;;;;;;6281838;22;20027;-85
2023/09/21 09:47:56;;;;;;;328.67;179.17;;;16.20;99.90;;;;;;6309559;22;20015;-85
2023/09/21 09:50:26;;;;;;;329.80;180.00;;;16.20;99.90;;;;;;6281769;22;20102;-85
2023/09/21 09:53:13;;;;;;;330.17;179.83;;;16.20;99.90;;;;;;6281585;22;20090;-86
2023/09/21 09:55:49;;;;;;;331.33;180.40;;;16.20;99.90;;;;;;6308919;22;20091;-85
2023/09/21 09:58:16;;;;;;;330.50;179.50;;;16.10;99.90;;;;;;6280847;22;20011;-85
2023/09/21 10:00:44;;;;;;;330.27;179.23;;;16.10;99.90;;;;;;6255969;22;20111;-85
2023/09/21 10:03:12;;;;;;;330.53;179.40;;;16.10;99.90;;;;;;6281236;22;20015;-86
2023/09/21 10:05:42;;;;;;;330.67;179.43;;;16.10;99.90;;;;;;6255618;22;20022;-86
2023/09/21 10:08:08;;;;;;;330.27;180.47;;;16.10;99.90;;;;;;6309090;22;20109;-85
2023/09/21 10:10:54;;;;;;;329.93;179.80;;;16.10;99.90;;;;;;6308714;22;20012;-86
2023/09/21 10:13:25;;;;;;;;;;;16.10;99.90;;;;;;6256618;22;20020;-87
2023/09/21 10:16:02;;;;;;;327.30;179.63;;;16.10;99.90;;;;;;6282363;22;20353;-87
2023/09/21 10:18:35;;;;;;;329.80;180.87;;;16.10;99.90;;;;;;6281930;22;20098;-86
2023/09/21 10:21:22;;;;;;;329.23;179.87;;;16.00;99.90;;;;;;6281669;22;20077;-87
2023/09/21 10:24:13;;;;;;;330.73;181.13;;;16.10;99.90;;;;;;6277933;22;20443;-86
2023/09/21 10:26:46;;;;;;;329.47;179.83;;;16.20;99.90;;;;;;6255456;22;20024;-87
2023/09/21 10:29:20;;;;;;;328.80;178.63;;;16.10;99.90;;;;;;6255720;22;20015;-87
2023/09/21 10:31:56;;;;;;;330.87;180.00;;;16.20;99.90;;;;;;6254960;22;20016;-86
2023/09/21 10:34:34;;;;;;;330.73;179.27;;;16.00;99.90;;;;;;6281001;22;20035;-88
2023/09/21 10:37:13;;;;;;;330.20;179.30;;;16.10;99.90;;;;;;6280838;22;20019;-87
2023/09/21 10:39:39;;;;;;;331.97;180.20;;;16.10;99.90;;;;;;6280381;22;20011;-88
2023/09/21 10:42:20;;;;;;;332.03;180.30;;;16.10;99.90;;;;;;6280886;22;20258;-88
2023/09/21 10:45:07;;;;;;;330.43;179.30;;;16.10;99.90;;;;;;6280770;22;20069;-86
2023/09/21 10:47:47;;;;;;;332.07;180.30;;;16.10;99.90;;;;;;6280906;22;20050;-88
2023/09/21 10:50:21;;;;;;;331.70;180.03;;;16.00;99.90;;;;;;6281780;22;20015;-86
2023/09/21 10:52:50;;;;;;;333.57;181.10;;;16.10;99.90;;;;;;6255298;22;20011;-86
2023/09/21 10:55:17;;;;;;;331.37;179.00;;;16.20;99.90;;;;;;6254210;22;20027;-86
2023/09/21 10:57:44;;;;;;;332.97;180.40;;;16.20;99.90;;;;;;6255078;22;20338;-83
2023/09/21 11:00:18;;;;;;;334.47;180.43;;;16.10;99.90;;;;;;6280482;22;20051;-84
2023/09/21 11:02:49;;;;;;;335.50;180.80;;;16.10;99.90;;;;;;6280896;22;20454;-85
2023/09/21 11:05:16;;;;;;;333.97;179.33;;;16.10;99.90;;;;;;6280471;22;20076;-84
2023/09/21 11:07:52;;;;;;;334.53;180.20;;;16.20;99.90;;;;;;6280914;22;20094;-84
2023/09/21 11:10:18;;;;;;;334.37;180.00;;;16.40;99.90;;;;;;6281087;22;20387;-84
2023/09/21 11:12:45;;;;;;;332.83;179.60;;;16.10;99.90;;;;;;6281209;22;20015;-87
2023/09/21 11:15:16;;;;;;;334.23;180.27;;;16.20;99.90;;;;;;6280757;22;20496;-85
2023/09/21 11:17:43;;;;;;;332.33;180.23;;;16.30;99.90;;;;;;6308183;22;20015;-86
2023/09/21 11:20:17;;;;;;;331.37;180.17;;;16.40;99.90;;;;;;6280148;22;20102;-83
2023/09/21 11:22:44;;;;;;;329.97;179.17;;;16.50;99.90;;;;;;6308568;22;20086;-81
2023/09/21 11:25:18;;;;;;;329.93;178.67;;;16.50;99.90;;;;;;6307944;22;20051;-84
2023/09/21 11:27:44;;;;;;;329.43;178.70;;;16.40;99.90;;;;;;6281089;22;20011;-86
2023/09/21 11:30:13;;;;;;;330.43;179.10;;;16.50;99.90;;;;;;6280891;22;20102;-85
2023/09/21 11:32:50;;;;;;;331.20;179.70;;;16.40;99.90;;;;;;6280513;22;20018;-85
2023/09/21 11:35:19;;;;;;;328.27;178.77;;;16.30;99.90;;;;;;6254799;22;20094;-86
2023/09/21 11:37:46;;;;;;;329.57;179.10;;;16.30;99.90;;;;;;6280629;22;20026;-85
2023/09/21 11:40:21;;;;;;;328.97;178.23;;;16.30;99.90;;;;;;6307475;22;20019;-85
2023/09/21 11:42:48;;;;;;;330.23;178.90;;;16.30;99.90;;;;;;6280781;22;20015;-84
2023/09/21 11:45:19;;;;;;;329.90;179.00;;;16.30;99.90;;;;;;6280245;22;20389;-83
2023/09/21 11:47:50;;;;;;;330.07;179.43;;;16.10;99.90;;;;;;6280467;22;20403;-83
2023/09/21 11:50:32;;;;;;;329.77;179.17;;;16.40;99.90;;;;;;6254785;22;20046;-84
2023/09/21 11:52:58;;;;;;;328.73;178.63;;;16.20;99.90;;;;;;6307380;22;20016;-85
2023/09/21 11:55:29;;;;;;;329.77;178.83;;;16.30;99.90;;;;;;6281016;22;20023;-83
2023/09/21 11:58:11;;;;;;;331.10;179.37;;;16.30;99.90;;;;;;6308287;22;20019;-84
2023/09/21 12:00:45;;;;;;;331.50;179.43;;;16.30;99.90;;;;;;6280613;22;20400;-86
2023/09/21 12:03:16;;;;;;;332.33;178.93;;;16.40;99.90;;;;;;6280080;22;20015;-84
2023/09/21 12:05:45;;;;;;;335.17;179.40;;;16.50;99.90;;;;;;6307207;22;20023;-83
2023/09/21 12:08:14;;;;;;;337.07;180.60;;;16.50;99.90;;;;;;6254737;22;20058;-84
2023/09/21 12:10:48;;;;;;;337.80;180.63;;;16.50;99.90;;;;;;6308183;22;20015;-84
2023/09/21 12:13:19;;;;;;;339.17;181.07;;;16.50;99.90;;;;;;6280447;22;20090;-83
2023/09/21 12:15:45;;;;;;;339.30;180.83;;;16.50;99.90;;;;;;6280593;22;20015;-84
2023/09/21 12:18:12;;;;;;;341.23;182.00;;;16.50;99.90;;;;;;6280572;22;20043;-84
2023/09/21 12:20:44;;;;;;;340.17;180.90;;;16.40;99.90;;;;;;6280376;22;20094;-84
2023/09/21 12:23:12;;;;;;;341.00;181.83;;;16.40;99.90;;;;;;6280299;22;20008;-85
2023/09/21 12:25:39;;;;;;;341.83;181.87;;;16.40;99.90;;;;;;6254587;22;20369;-86
2023/09/21 12:28:05;;;;;;;341.50;181.17;;;16.50;99.90;;;;;;6307249;22;20453;-87
2023/09/21 12:30:31;;;;;;;342.10;181.33;;;16.50;99.90;;;;;;6280042;22;20030;-85
2023/09/21 12:32:56;;;;;;;342.27;181.57;;;16.60;99.90;;;;;;6280019;22;20322;-85
2023/09/21 12:35:25;;;;;;;343.40;182.33;;;16.60;99.90;;;;;;6307562;22;20015;-85
2023/09/21 12:37:51;;;;;;;343.73;181.83;;;16.60;99.90;;;;;;6307950;22;20345;-84
2023/09/21 12:40:18;;;;;;;343.97;181.43;;;16.60;99.90;;;;;;6280223;22;20015;-85
2023/09/21 12:42:45;;;;;;;344.67;182.23;;;16.70;99.90;;;;;;6254043;22;20026;-86
2023/09/21 12:45:15;;;;;;;344.03;181.40;;;16.70;99.90;;;;;;6254533;22;20020;-87
2023/09/21 12:47:41;;;;;;;343.50;181.47;;;16.70;99.90;;;;;;6255084;22;20022;-87
2023/09/21 12:50:09;;;;;;;344.37;182.93;;;16.60;99.90;;;;;;6279613;22;20015;-88
2023/09/21 12:52:37;;;;;;;344.53;182.00;;;16.60;99.90;;;;;;6280183;22;20382;-85
2023/09/21 12:55:07;;;;;;;344.67;182.50;;;16.60;99.90;;;;;;6279996;22;20019;-85
2023/09/21 12:57:37;;;;;;;344.73;181.97;;;16.60;99.90;;;;;;6279913;22;20011;-85
2023/09/21 13:00:18;;;;;;;343.97;181.87;;;16.60;99.90;;;;;;6307685;22;20019;-85
2023/09/21 13:02:46;;;;;;;343.27;181.20;;;16.70;99.90;;;;;;6280404;22;20090;-85
2023/09/21 13:05:13;;;;;;;345.17;182.03;;;16.90;99.90;;;;;;6280085;22;20285;-86
2023/09/21 13:07:39;;;;;;;346.70;182.10;;;16.80;99.90;;;;;;6254565;22;20022;-85
2023/09/21 13:10:07;;;;;;;347.13;182.63;;;16.70;99.90;;;;;;6279301;22;20022;-85
2023/09/21 13:12:33;;;;;;;347.63;183.03;;;17.20;99.90;;;;;;6279990;22;20020;-84
2023/09/21 13:15:00;;;;;;;347.13;182.77;;;17.00;99.90;;;;;;6254546;22;20011;-85
2023/09/21 13:17:28;;;;;;;343.30;182.83;;;17.10;99.90;;;;;;6307015;22;20488;-85
2023/09/21 13:19:54;;;;;;;341.10;181.83;;;17.20;99.90;;;;;;6254276;22;20253;-85
2023/09/21 13:22:21;;;;;;;342.93;182.43;;;17.10;99.90;;;;;;6280425;22;20093;-87
2023/09/21 13:24:49;;;;;;;344.17;182.47;;;17.20;99.90;;;;;;6279840;22;20012;-86
2023/09/21 13:27:17;;;;;;;333.73;181.27;;;17.10;99.90;;;;;;6306696;22;20015;-87
2023/09/21 13:29:44;;;;;;;336.57;182.57;;;17.20;99.90;;;;;;6307075;22;20020;-85
2023/09/21 13:32:11;;;;;;;337.73;182.57;;;17.20;99.90;;;;;;6274617;22;20073;-87
2023/09/21 13:34:37;;;;;;;339.00;182.77;;;17.10;99.90;;;;;;6252836;22;20073;-86
2023/09/21 13:37:04;;;;;;;338.90;182.63;;;17.00;99.90;;;;;;6253616;22;20019;-87
2023/09/21 13:39:33;;;;;;;336.33;180.90;;;16.90;99.90;;;;;;6307371;22;20019;-86
2023/09/21 13:42:02;;;;;;;338.60;182.60;;;16.90;99.90;;;;;;6306575;22;20080;-86
2023/09/21 13:44:29;;;;;;;339.07;183.17;;;16.80;99.90;;;;;;6279278;22;20437;-87